Time,TemperatureF,DewpointF,PressureIn,WindDirection,WindDirectionDegrees,WindSpeedMPH,WindSpeedGustMPH,Humidity,HourlyPrecipIn,Conditions,Clouds,dailyrainin,SoftwareType,DateUTC
2013-01-26 00:02:00,28.0,24.0,-100.00,North,350,0.0,0.0,87,-99.99,,,-99.99,,2013-01-26 06:02:00,
2013-01-26 00:12:00,28.0,25.0,-100.00,SSE,155,4.0,4.0,88,-99.99,,,-99.99,,2013-01-26 06:12:00,
2013-01-26 00:21:00,28.0,25.0,-100.00,SSE,155,4.0,4.0,88,-99.99,,,-99.99,,2013-01-26 06:21:00,
2013-01-26 00:42:00,27.0,24.0,-100.00,SSE,160,4.0,4.0,89,-99.99,,,-99.99,,2013-01-26 06:42:00,
2013-01-26 00:52:00,27.0,24.0,-100.00,SSE,160,6.0,6.0,89,-99.99,,,-99.99,,2013-01-26 06:52:00,
2013-01-26 01:02:00,27.0,24.0,-100.00,SSE,160,6.0,6.0,89,-99.99,,,-99.99,,2013-01-26 07:02:00,
2013-01-26 01:12:00,28.0,25.0,-100.00,SSE,155,4.0,6.0,90,-99.99,,,-99.99,,2013-01-26 07:12:00,
2013-01-26 01:21:00,27.0,25.0,-100.00,SSE,155,6.0,6.0,90,-99.99,,,-99.99,,2013-01-26 07:21:00,
2013-01-26 01:33:00,27.0,25.0,-100.00,SSE,155,6.0,6.0,90,-99.99,,,-99.99,,2013-01-26 07:33:00,
2013-01-26 01:41:00,28.0,25.0,-100.00,SSE,160,4.0,4.0,90,-99.99,,,-99.99,,2013-01-26 07:41:00,
2013-01-26 01:52:00,28.0,25.0,-100.00,SSE,155,6.0,6.0,90,-99.99,,,-99.99,,2013-01-26 07:52:00,
2013-01-26 02:02:00,28.0,25.0,-100.00,SSE,155,6.0,6.0,90,-99.99,,,-99.99,,2013-01-26 08:02:00,
2013-01-26 02:11:00,26.0,23.0,-100.00,SSE,165,6.0,6.0,90,-99.99,,,-99.99,,2013-01-26 08:11:00,
2013-01-26 02:21:00,27.0,25.0,-100.00,SSE,150,3.0,4.0,90,-99.99,,,-99.99,,2013-01-26 08:21:00,
2013-01-26 02:32:00,27.0,25.0,-100.00,SSE,150,3.0,4.0,90,-99.99,,,-99.99,,2013-01-26 08:32:00,
2013-01-26 02:42:00,26.0,24.0,-100.00,East,90,0.0,0.0,90,-99.99,,,-99.99,,2013-01-26 08:42:00,
2013-01-26 02:54:00,26.0,23.0,-100.00,SE,145,1.0,1.0,90,-99.99,,,-99.99,,2013-01-26 08:54:00,
2013-01-26 03:02:00,26.0,23.0,-100.00,SE,145,1.0,1.0,90,-99.99,,,-99.99,,2013-01-26 09:02:00,
2013-01-26 03:11:00,26.0,24.0,-100.00,SSE,160,3.0,3.0,91,-99.99,,,-99.99,,2013-01-26 09:11:00,
2013-01-26 03:22:00,26.0,24.0,-100.00,SSE,155,4.0,6.0,91,-99.99,,,-99.99,,2013-01-26 09:22:00,
2013-01-26 03:32:00,26.0,24.0,-100.00,SSE,155,4.0,6.0,91,-99.99,,,-99.99,,2013-01-26 09:32:00,
2013-01-26 03:42:00,27.0,24.0,-100.00,SE,145,3.0,4.0,91,-99.99,,,-99.99,,2013-01-26 09:42:00,
2013-01-26 03:52:00,26.0,24.0,-100.00,SSE,155,1.0,1.0,91,-99.99,,,-99.99,,2013-01-26 09:52:00,
2013-01-26 04:01:00,26.0,24.0,-100.00,SSE,155,1.0,1.0,91,-99.99,,,-99.99,,2013-01-26 10:01:00,
2013-01-26 04:12:00,27.0,24.0,-100.00,SSE,160,1.0,2.0,91,-99.99,,,-99.99,,2013-01-26 10:12:00,
2013-01-26 04:21:00,27.0,24.0,-100.00,SSE,150,3.0,3.0,91,-99.99,,,-99.99,,2013-01-26 10:21:00,
2013-01-26 04:32:00,27.0,24.0,-100.00,SSE,150,3.0,3.0,91,-99.99,,,-99.99,,2013-01-26 10:32:00,
2013-01-26 04:42:00,26.0,24.0,-100.00,SSE,155,4.0,4.0,91,-99.99,,,-99.99,,2013-01-26 10:42:00,
2013-01-26 04:52:00,26.0,24.0,-100.00,SSE,150,3.0,4.0,91,-99.99,,,-99.99,,2013-01-26 10:52:00,
2013-01-26 05:01:00,26.0,24.0,-100.00,SSE,150,3.0,4.0,91,-99.99,,,-99.99,,2013-01-26 11:01:00,
2013-01-26 05:12:00,26.0,24.0,-100.00,South,170,2.0,2.0,91,-99.99,,,-99.99,,2013-01-26 11:12:00,
2013-01-26 05:22:00,26.0,24.0,-100.00,South,180,1.0,1.0,91,-99.99,,,-99.99,,2013-01-26 11:22:00,
2013-01-26 05:32:00,26.0,24.0,-100.00,South,180,1.0,1.0,91,-99.99,,,-99.99,,2013-01-26 11:32:00,
2013-01-26 05:42:00,27.0,25.0,-100.00,SSE,150,2.0,2.0,91,-99.99,,,-99.99,,2013-01-26 11:42:00,
2013-01-26 05:52:00,28.0,26.0,-100.00,NNW,345,0.0,0.0,91,-99.99,,,-99.99,,2013-01-26 11:52:00,
2013-01-26 06:02:00,28.0,26.0,-100.00,NNW,345,0.0,0.0,91,-99.99,,,-99.99,,2013-01-26 12:02:00,
2013-01-26 06:12:00,29.0,26.0,-100.00,NW,325,1.0,2.0,91,-99.99,,,-99.99,,2013-01-26 12:12:00,
2013-01-26 06:22:00,29.0,26.0,-100.00,NW,310,1.0,2.0,88,-99.99,,,-99.99,,2013-01-26 12:22:00,
2013-01-26 06:33:00,29.0,26.0,-100.00,NW,310,1.0,2.0,88,-99.99,,,-99.99,,2013-01-26 12:33:00,
2013-01-26 06:42:00,29.0,24.0,-100.00,NW,325,2.0,3.0,83,-99.99,,,-99.99,,2013-01-26 12:42:00,
2013-01-26 06:53:00,30.0,24.0,-100.00,NW,325,2.0,3.0,78,-99.99,,,-99.99,,2013-01-26 12:53:00,
2013-01-26 07:03:00,30.0,24.0,-100.00,NW,325,2.0,3.0,78,-99.99,,,-99.99,,2013-01-26 13:03:00,
2013-01-26 07:12:00,29.0,22.0,-100.00,NNW,345,0.0,3.0,76,-99.99,,,-99.99,,2013-01-26 13:12:00,
2013-01-26 07:22:00,28.0,23.0,-100.00,NNW,340,4.0,6.0,81,-99.99,,,-99.99,,2013-01-26 13:22:00,
2013-01-26 07:32:00,28.0,23.0,-100.00,NNW,340,4.0,6.0,81,-99.99,,,-99.99,,2013-01-26 13:32:00,
2013-01-26 07:42:00,28.0,23.0,-100.00,ENE,60,0.0,1.0,81,-99.99,,,-99.99,,2013-01-26 13:42:00,
2013-01-26 07:53:00,27.0,22.0,-100.00,North,10,1.0,1.0,82,-99.99,,,-99.99,,2013-01-26 13:53:00,
2013-01-26 08:03:00,27.0,22.0,-100.00,North,10,1.0,1.0,82,-99.99,,,-99.99,,2013-01-26 14:03:00,
2013-01-26 08:12:00,27.0,22.0,-100.00,NNW,335,1.0,2.0,84,-99.99,,,-99.99,,2013-01-26 14:12:00,
2013-01-26 08:22:00,27.0,23.0,-100.00,NNE,30,2.0,3.0,86,-99.99,,,-99.99,,2013-01-26 14:22:00,
2013-01-26 08:32:00,27.0,23.0,-100.00,NNE,30,2.0,3.0,86,-99.99,,,-99.99,,2013-01-26 14:32:00,
2013-01-26 08:43:00,28.0,24.0,-100.00,NNW,330,1.0,2.0,86,-99.99,,,-99.99,,2013-01-26 14:43:00,
2013-01-26 08:53:00,30.0,24.0,-100.00,North,0,4.0,4.0,81,-99.99,,,-99.99,,2013-01-26 14:53:00,
2013-01-26 09:03:00,30.0,24.0,-100.00,North,0,4.0,4.0,81,-99.99,,,-99.99,,2013-01-26 15:03:00,
2013-01-26 09:12:00,31.0,24.0,-100.00,North,0,4.0,6.0,77,-99.99,,,-99.99,,2013-01-26 15:12:00,
2013-01-26 09:22:00,31.0,23.0,-100.00,NNE,15,4.0,6.0,72,-99.99,,,-99.99,,2013-01-26 15:22:00,
2013-01-26 09:32:00,31.0,23.0,-100.00,NNE,15,4.0,6.0,72,-99.99,,,-99.99,,2013-01-26 15:32:00,
2013-01-26 09:43:00,32.0,23.0,-100.00,North,10,4.0,6.0,68,-99.99,,,-99.99,,2013-01-26 15:43:00,
2013-01-26 09:53:00,33.0,23.0,-100.00,North,10,3.0,4.0,66,-99.99,,,-99.99,,2013-01-26 15:53:00,
2013-01-26 10:02:00,33.0,23.0,-100.00,North,10,3.0,4.0,66,-99.99,,,-99.99,,2013-01-26 16:02:00,
2013-01-26 10:12:00,33.0,22.0,-100.00,NE,45,2.0,3.0,62,-99.99,,,-99.99,,2013-01-26 16:12:00,
2013-01-26 10:22:00,34.0,21.0,-100.00,North,0,4.0,8.0,59,-99.99,,,-99.99,,2013-01-26 16:22:00,
2013-01-26 10:33:00,34.0,21.0,-100.00,NE,35,4.0,6.0,57,-99.99,,,-99.99,,2013-01-26 16:33:00,
2013-01-26 10:42:00,34.0,21.0,-100.00,NE,35,4.0,6.0,57,-99.99,,,-99.99,,2013-01-26 16:42:00,
2013-01-26 10:53:00,35.0,21.0,-100.00,NW,325,3.0,6.0,56,-99.99,,,-99.99,,2013-01-26 16:53:00,
2013-01-26 11:03:00,35.0,21.0,-100.00,NW,325,3.0,6.0,56,-99.99,,,-99.99,,2013-01-26 17:03:00,
2013-01-26 11:13:00,36.0,20.0,-100.00,NNW,340,6.0,6.0,52,-99.99,,,-99.99,,2013-01-26 17:13:00,
2013-01-26 11:22:00,35.0,18.0,-100.00,NW,320,3.0,4.0,51,-99.99,,,-99.99,,2013-01-26 17:22:00,
2013-01-26 11:33:00,35.0,18.0,-100.00,NW,320,3.0,4.0,51,-99.99,,,-99.99,,2013-01-26 17:33:00,
2013-01-26 11:42:00,37.0,19.0,-100.00,ENE,65,3.0,4.0,49,-99.99,,,-99.99,,2013-01-26 17:42:00,
2013-01-26 11:53:00,38.0,20.0,-100.00,ENE,60,1.0,2.0,47,-99.99,,,-99.99,,2013-01-26 17:53:00,
2013-01-26 12:02:00,38.0,20.0,-100.00,ENE,60,1.0,2.0,47,-99.99,,,-99.99,,2013-01-26 18:02:00,
2013-01-26 12:12:00,38.0,19.0,-100.00,NE,55,0.0,2.0,46,-99.99,,,-99.99,,2013-01-26 18:12:00,
2013-01-26 12:22:00,38.0,18.0,-100.00,NNW,345,4.0,8.0,44,-99.99,,,-99.99,,2013-01-26 18:22:00,
2013-01-26 12:33:00,38.0,18.0,-100.00,NNW,345,4.0,8.0,44,-99.99,,,-99.99,,2013-01-26 18:33:00,
2013-01-26 12:42:00,37.0,17.0,-100.00,North,0,2.0,6.0,44,-99.99,,,-99.99,,2013-01-26 18:42:00,
2013-01-26 12:53:00,39.0,18.0,-100.00,North,0,4.0,9.0,43,-99.99,,,-99.99,,2013-01-26 18:53:00,
2013-01-26 13:03:00,39.0,18.0,-100.00,North,0,4.0,9.0,43,-99.99,,,-99.99,,2013-01-26 19:03:00,
2013-01-26 13:12:00,40.0,18.0,-100.00,NNE,15,4.0,6.0,41,-99.99,,,-99.99,,2013-01-26 19:12:00,
2013-01-26 13:22:00,40.0,17.0,-100.00,North,10,2.0,4.0,40,-99.99,,,-99.99,,2013-01-26 19:22:00,
2013-01-26 13:32:00,40.0,17.0,-100.00,North,10,2.0,4.0,40,-99.99,,,-99.99,,2013-01-26 19:32:00,
2013-01-26 13:42:00,40.0,18.0,-100.00,NE,45,1.0,4.0,40,-99.99,,,-99.99,,2013-01-26 19:42:00,
2013-01-26 13:53:00,41.0,18.0,-100.00,NE,55,2.0,4.0,38,-99.99,,,-99.99,,2013-01-26 19:53:00,
2013-01-26 14:02:00,41.0,18.0,-100.00,NE,55,2.0,4.0,38,-99.99,,,-99.99,,2013-01-26 20:02:00,
2013-01-26 14:11:00,40.0,16.0,-100.00,NNE,15,3.0,6.0,38,-99.99,,,-99.99,,2013-01-26 20:11:00,
2013-01-26 14:22:00,40.0,17.0,-100.00,NNE,25,3.0,4.0,38,-99.99,,,-99.99,,2013-01-26 20:22:00,
2013-01-26 14:32:00,40.0,17.0,-100.00,NNE,25,3.0,4.0,38,-99.99,,,-99.99,,2013-01-26 20:32:00,
2013-01-26 14:42:00,40.0,16.0,-100.00,NNE,30,4.0,4.0,37,-99.99,,,-99.99,,2013-01-26 20:42:00,
2013-01-26 14:52:00,41.0,15.0,-100.00,North,10,4.0,6.0,35,-99.99,,,-99.99,,2013-01-26 20:52:00,
2013-01-26 15:02:00,41.0,15.0,-100.00,North,10,4.0,6.0,35,-99.99,,,-99.99,,2013-01-26 21:02:00,
2013-01-26 15:12:00,42.0,16.0,-100.00,North,0,2.0,4.0,34,-99.99,,,-99.99,,2013-01-26 21:12:00,
2013-01-26 15:22:00,43.0,16.0,-100.00,NE,55,2.0,4.0,33,-99.99,,,-99.99,,2013-01-26 21:22:00,
2013-01-26 15:32:00,43.0,15.0,-100.00,NE,45,0.0,1.0,31,-99.99,,,-99.99,,2013-01-26 21:32:00,
2013-01-26 15:42:00,43.0,15.0,-100.00,NE,45,0.0,1.0,31,-99.99,,,-99.99,,2013-01-26 21:42:00,
2013-01-26 15:52:00,43.0,14.0,-100.00,North,0,2.0,3.0,31,-99.99,,,-99.99,,2013-01-26 21:52:00,
2013-01-26 16:01:00,43.0,14.0,-100.00,North,0,2.0,3.0,31,-99.99,,,-99.99,,2013-01-26 22:01:00,
2013-01-26 16:12:00,43.0,15.0,-100.00,ENE,60,3.0,4.0,31,-99.99,,,-99.99,,2013-01-26 22:12:00,
2013-01-26 16:22:00,41.0,13.0,-100.00,ENE,60,1.0,2.0,31,-99.99,,,-99.99,,2013-01-26 22:22:00,
2013-01-26 16:32:00,41.0,13.0,-100.00,ENE,60,1.0,2.0,31,-99.99,,,-99.99,,2013-01-26 22:32:00,
2013-01-26 16:42:00,39.0,13.0,-100.00,NNW,345,1.0,3.0,33,-99.99,,,-99.99,,2013-01-26 22:42:00,
2013-01-26 16:52:00,38.0,13.0,-100.00,NNW,345,1.0,1.0,35,-99.99,,,-99.99,,2013-01-26 22:52:00,
2013-01-26 17:01:00,38.0,13.0,-100.00,NNW,345,1.0,1.0,35,-99.99,,,-99.99,,2013-01-26 23:01:00,
2013-01-26 17:12:00,37.0,13.0,-100.00,NW,320,0.0,1.0,36,-99.99,,,-99.99,,2013-01-26 23:12:00,
2013-01-26 17:22:00,37.0,14.0,-100.00,NNW,340,1.0,1.0,38,-99.99,,,-99.99,,2013-01-26 23:22:00,
2013-01-26 17:32:00,37.0,14.0,-100.00,NNW,340,1.0,1.0,38,-99.99,,,-99.99,,2013-01-26 23:32:00,
2013-01-26 17:42:00,37.0,15.0,-100.00,NNW,340,0.0,0.0,40,-99.99,,,-99.99,,2013-01-26 23:42:00,
2013-01-26 17:52:00,36.0,15.0,-100.00,NW,320,0.0,1.0,41,-99.99,,,-99.99,,2013-01-26 23:52:00,
2013-01-26 18:02:00,36.0,15.0,-100.00,NW,320,0.0,1.0,41,-99.99,,,-99.99,,2013-01-27 00:02:00,
2013-01-26 18:11:00,35.0,14.0,-100.00,NNW,340,1.0,1.0,42,-99.99,,,-99.99,,2013-01-27 00:11:00,
2013-01-26 18:21:00,35.0,15.0,-100.00,NNW,330,1.0,1.0,43,-99.99,,,-99.99,,2013-01-27 00:21:00,
2013-01-26 18:32:00,35.0,15.0,-100.00,NNW,330,1.0,1.0,43,-99.99,,,-99.99,,2013-01-27 00:32:00,
2013-01-26 18:42:00,34.0,14.0,-100.00,North,0,0.0,1.0,43,-99.99,,,-99.99,,2013-01-27 00:42:00,
2013-01-26 18:52:00,34.0,14.0,-100.00,NW,310,1.0,1.0,43,-99.99,,,-99.99,,2013-01-27 00:52:00,
2013-01-26 19:01:00,34.0,14.0,-100.00,NW,310,1.0,1.0,43,-99.99,,,-99.99,,2013-01-27 01:01:00,
2013-01-26 19:11:00,34.0,14.0,-100.00,WNW,300,0.0,0.0,44,-99.99,,,-99.99,,2013-01-27 01:11:00,
2013-01-26 19:22:00,34.0,14.0,-100.00,NNW,335,0.0,1.0,44,-99.99,,,-99.99,,2013-01-27 01:22:00,
2013-01-26 19:32:00,34.0,14.0,-100.00,NNW,335,0.0,1.0,44,-99.99,,,-99.99,,2013-01-27 01:32:00,
2013-01-26 19:42:00,34.0,14.0,-100.00,NW,315,0.0,1.0,43,-99.99,,,-99.99,,2013-01-27 01:42:00,
2013-01-26 19:52:00,33.0,13.0,-100.00,ESE,105,0.0,2.0,43,-99.99,,,-99.99,,2013-01-27 01:52:00,
2013-01-26 20:01:00,33.0,13.0,-100.00,ESE,105,0.0,2.0,43,-99.99,,,-99.99,,2013-01-27 02:01:00,
2013-01-26 20:12:00,33.0,14.0,-100.00,NNE,25,1.0,2.0,44,-99.99,,,-99.99,,2013-01-27 02:12:00,
2013-01-26 20:22:00,33.0,14.0,-100.00,NE,40,0.0,0.0,44,-99.99,,,-99.99,,2013-01-27 02:22:00,
2013-01-26 20:32:00,33.0,14.0,-100.00,NE,40,0.0,0.0,44,-99.99,,,-99.99,,2013-01-27 02:32:00,
2013-01-26 20:42:00,33.0,14.0,-100.00,East,100,0.0,1.0,45,-99.99,,,-99.99,,2013-01-27 02:42:00,
2013-01-26 20:52:00,32.0,14.0,-100.00,WNW,285,0.0,0.0,45,-99.99,,,-99.99,,2013-01-27 02:52:00,
2013-01-26 21:02:00,32.0,14.0,-100.00,WNW,285,0.0,0.0,45,-99.99,,,-99.99,,2013-01-27 03:02:00,
2013-01-26 21:11:00,33.0,14.0,-100.00,NW,305,0.0,1.0,46,-99.99,,,-99.99,,2013-01-27 03:11:00,
2013-01-26 21:21:00,32.0,14.0,-100.00,NW,315,0.0,1.0,47,-99.99,,,-99.99,,2013-01-27 03:21:00,
2013-01-26 21:32:00,32.0,14.0,-100.00,NW,315,0.0,1.0,47,-99.99,,,-99.99,,2013-01-27 03:32:00,
2013-01-26 21:42:00,32.0,14.0,-100.00,West,265,0.0,0.0,48,-99.99,,,-99.99,,2013-01-27 03:42:00,
2013-01-26 21:52:00,32.0,15.0,-100.00,East,85,0.0,0.0,48,-99.99,,,-99.99,,2013-01-27 03:52:00,
2013-01-26 22:02:00,32.0,15.0,-100.00,East,85,0.0,0.0,48,-99.99,,,-99.99,,2013-01-27 04:02:00,
2013-01-26 22:11:00,32.0,14.0,-100.00,ESE,115,0.0,1.0,48,-99.99,,,-99.99,,2013-01-27 04:11:00,
2013-01-26 22:21:00,32.0,14.0,-100.00,ENE,75,1.0,3.0,48,-99.99,,,-99.99,,2013-01-27 04:21:00,
2013-01-26 22:32:00,32.0,15.0,-100.00,SSW,205,0.0,0.0,49,-99.99,,,-99.99,,2013-01-27 04:32:00,
2013-01-26 22:41:00,32.0,15.0,-100.00,SSW,205,0.0,0.0,49,-99.99,,,-99.99,,2013-01-27 04:41:00,
2013-01-26 22:52:00,31.0,14.0,-100.00,ENE,65,0.0,1.0,49,-99.99,,,-99.99,,2013-01-27 04:52:00,
2013-01-26 23:03:00,31.0,14.0,-100.00,ENE,65,0.0,1.0,49,-99.99,,,-99.99,,2013-01-27 05:03:00,
2013-01-26 23:12:00,31.0,14.0,-100.00,SSE,155,0.0,0.0,50,-99.99,,,-99.99,,2013-01-27 05:12:00,
2013-01-26 23:22:00,30.0,14.0,-100.00,NNW,335,0.0,0.0,51,-99.99,,,-99.99,,2013-01-27 05:22:00,
2013-01-26 23:32:00,30.0,14.0,-100.00,NNW,335,0.0,0.0,51,-99.99,,,-99.99,,2013-01-27 05:32:00,
2013-01-26 23:41:00,30.0,15.0,-100.00,SSW,205,1.0,1.0,53,-99.99,,,-99.99,,2013-01-27 05:41:00,
2013-01-26 23:52:00,31.0,15.0,-100.00,SSW,205,0.0,1.0,52,-99.99,,,-99.99,,2013-01-27 05:52:00,